Time;durP1;ratioP1;P1;durP2;ratioP2;P2;SDS_P1;SDS_P2;PMS_P1;PMS_P2;Temp;Humidity;BMP_temperature;BMP_pressure;BME280_temperature;BME280_humidity;BME280_pressure;Samples;Min_cycle;Max_cycle;Signal;HPM_P1;HPM_P2
2022/03/18 00:02:09;;;;;;;2.95;2.15;;;18.10;35.50;20.80;95112.00;;;;10314773;28;47388;-60
2022/03/18 00:07:10;;;;;;;3.25;2.30;;;18.20;36.20;20.80;95117.00;;;;10314416;28;47177;-61
2022/03/18 00:12:12;;;;;;;3.05;2.20;;;18.20;35.50;20.70;95123.00;;;;10314548;28;46595;-60
2022/03/18 00:17:12;;;;;;;2.42;1.80;;;18.20;35.50;20.70;95115.00;;;;10314329;28;45269;-60
2022/03/18 00:22:13;;;;;;;2.47;1.95;;;18.10;35.50;20.70;95111.00;;;;10314351;28;45156;-60
2022/03/18 00:27:14;;;;;;;2.15;1.80;;;18.10;35.50;20.70;95121.00;;;;10314071;28;46634;-60
2022/03/18 00:32:15;;;;;;;3.72;1.77;;;18.10;35.40;20.70;95119.00;;;;10313891;28;46931;-60
2022/03/18 00:37:16;;;;;;;2.50;1.75;;;18.10;35.40;20.70;95131.00;;;;10313618;28;45372;-60
2022/03/18 00:42:17;;;;;;;2.17;1.73;;;18.10;35.40;20.70;95110.00;;;;10329617;28;46531;-60
2022/03/18 00:52:37;;;;;;;2.53;1.73;;;18.10;35.40;20.70;95130.00;;;;10313826;28;45672;-60
2022/03/18 00:57:38;;;;;;;1.73;1.35;;;18.10;35.40;20.70;95139.00;;;;10313988;28;45243;-60
2022/03/18 01:02:39;;;;;;;1.75;1.50;;;18.10;35.40;20.70;95122.00;;;;10312836;28;46981;-60
2022/03/18 01:07:39;;;;;;;2.72;1.60;;;18.00;35.40;20.70;95117.00;;;;10312549;28;46414;-60
2022/03/18 01:12:40;;;;;;;2.05;1.70;;;18.10;35.50;20.70;95125.00;;;;10313669;28;45385;-60
2022/03/18 01:17:41;;;;;;;2.22;1.58;;;18.10;35.40;20.60;95111.00;;;;10313503;28;45295;-60
2022/03/18 01:22:41;;;;;;;1.90;1.38;;;18.00;35.40;20.60;95108.00;;;;10312077;28;47318;-60
2022/03/18 01:27:42;;;;;;;2.45;1.33;;;18.00;35.40;20.70;95118.00;;;;10311902;28;45696;-60
2022/03/18 01:32:43;;;;;;;1.77;1.40;;;18.00;35.40;20.60;95094.00;;;;10311031;28;47044;-60
2022/03/18 01:37:43;;;;;;;1.40;1.30;;;18.00;35.30;20.60;95108.00;;;;10295138;28;48020;-60
2022/03/18 01:42:45;;;;;;;2.00;1.27;;;18.00;35.40;20.60;95104.00;;;;10311438;28;47535;-60
2022/03/18 01:47:47;;;;;;;1.83;1.33;;;18.00;35.40;20.60;95118.00;;;;10311805;28;45240;-60
2022/03/18 01:52:48;;;;;;;3.45;1.60;;;18.00;35.40;20.60;95092.00;;;;10311226;28;46339;-60
2022/03/18 01:57:49;;;;;;;2.55;1.63;;;18.00;35.30;20.60;95118.00;;;;10293120;28;47854;-60
2022/03/18 02:02:49;;;;;;;2.20;1.50;;;18.00;35.40;20.60;95106.00;;;;10306687;28;46520;-60
2022/03/18 02:07:50;;;;;;;1.60;1.38;;;18.00;35.40;20.60;95099.00;;;;10309553;28;46937;-60
2022/03/18 02:12:51;;;;;;;1.67;1.40;;;18.00;35.30;20.60;95110.00;;;;10310622;28;46241;-59
2022/03/18 02:17:52;;;;;;;2.13;1.27;;;18.00;35.30;20.60;95105.00;;;;10310518;28;47403;-60
2022/03/18 02:22:53;;;;;;;2.28;1.30;;;18.00;35.40;20.60;95108.00;;;;10311041;28;45351;-60
2022/03/18 02:28:04;;;;;;;2.00;1.40;;;18.00;35.40;20.60;95103.00;;;;10327009;28;45330;-60
2022/03/18 02:33:05;;;;;;;2.10;1.33;;;18.00;35.40;20.60;95107.00;;;;10310169;28;45315;-60
2022/03/18 02:38:05;;;;;;;1.70;1.00;;;18.00;35.40;20.50;95112.00;;;;10310072;28;45415;-59
2022/03/18 02:43:06;;;;;;;1.55;1.10;;;17.90;35.30;20.50;95094.00;;;;10310060;28;45373;-60
2022/03/18 02:48:07;;;;;;;3.13;1.42;;;17.90;35.20;20.50;95112.00;;;;10309595;28;47738;-60
2022/03/18 02:53:07;;;;;;;1.50;1.10;;;17.90;35.30;20.50;95103.00;;;;10309683;28;48505;-60
2022/03/18 02:58:08;;;;;;;1.60;1.10;;;17.90;35.20;20.50;95107.00;;;;10309394;28;45541;-60
2022/03/18 03:03:08;;;;;;;2.45;1.20;;;17.90;35.20;20.50;95117.00;;;;10314361;28;46451;-60
2022/03/18 03:08:09;;;;;;;2.55;1.02;;;17.90;35.20;20.50;95110.00;;;;10316146;28;47514;-60
2022/03/18 03:13:10;;;;;;;1.80;1.10;;;17.90;35.20;20.50;95131.00;;;;10317689;28;45537;-60
2022/03/18 03:18:11;;;;;;;2.17;1.25;;;17.90;35.20;20.50;95140.00;;;;10316505;28;45299;-60
2022/03/18 03:23:12;;;;;;;2.03;1.27;;;17.90;35.20;20.50;95134.00;;;;10316113;28;45318;-59
2022/03/18 03:28:12;;;;;;;1.00;0.90;;;17.90;35.20;20.50;95139.00;;;;10315977;28;45396;-61
2022/03/18 03:33:15;;;;;;;1.65;1.00;;;17.90;35.10;20.50;95145.00;;;;10315569;28;45627;-60
2022/03/18 03:38:16;;;;;;;1.25;1.08;;;17.90;35.20;20.50;95146.00;;;;10331747;28;48137;-60
2022/03/18 03:43:17;;;;;;;1.02;0.90;;;17.90;35.20;20.50;95136.00;;;;10315479;28;46875;-60
2022/03/18 03:48:17;;;;;;;2.55;1.10;;;17.90;35.20;20.50;95150.00;;;;10315189;28;46485;-60
2022/03/18 03:53:18;;;;;;;1.92;1.10;;;17.90;35.10;20.40;95145.00;;;;10298686;28;46872;-60
2022/03/18 03:58:19;;;;;;;1.52;1.00;;;17.90;35.20;20.40;95154.00;;;;10315056;28;46182;-59
2022/03/18 04:03:19;;;;;;;1.75;1.10;;;17.90;35.20;20.40;95158.00;;;;10314311;28;47801;-60
2022/03/18 04:08:20;;;;;;;1.67;1.20;;;17.90;35.20;20.40;95168.00;;;;10314478;28;48644;-60
2022/03/18 04:13:21;;;;;;;1.83;1.10;;;17.80;35.10;20.40;95182.00;;;;10314609;28;45629;-60
2022/03/18 04:18:21;;;;;;;1.27;1.00;;;17.80;35.20;20.40;95165.00;;;;10315485;28;45311;-60
2022/03/18 04:23:22;;;;;;;1.92;1.20;;;17.80;35.10;20.40;95189.00;;;;10315519;28;45238;-60
2022/03/18 04:28:22;;;;;;;3.05;1.20;;;17.80;35.10;20.40;95175.00;;;;10313772;28;47525;-60
2022/03/18 04:33:23;;;;;;;1.42;1.02;;;17.80;35.10;20.40;95185.00;;;;10313341;28;45323;-60
2022/03/18 04:38:24;;;;;;;1.95;1.10;;;17.80;35.10;20.40;95178.00;;;;10313688;28;45234;-60
2022/03/18 04:43:25;;;;;;;1.65;1.40;;;17.80;35.10;20.40;95184.00;;;;10314934;28;46299;-60
2022/03/18 04:48:25;;;;;;;1.45;1.15;;;17.80;35.10;20.40;95187.00;;;;10313462;28;45513;-59
2022/03/18 04:53:26;;;;;;;2.03;1.25;;;17.80;35.00;20.40;95197.00;;;;10296799;28;45516;-59
2022/03/18 04:58:27;;;;;;;2.88;1.17;;;17.80;35.10;20.40;95198.00;;;;10313180;28;46386;-60
2022/03/18 05:03:28;;;;;;;1.80;1.20;;;17.80;35.00;20.40;95189.00;;;;10312692;28;47401;-60
2022/03/18 05:08:29;;;;;;;2.13;1.30;;;17.80;35.10;20.40;95191.00;;;;10314189;28;46397;-60
2022/03/18 05:13:29;;;;;;;1.80;1.50;;;17.80;35.10;20.40;95183.00;;;;10312596;28;45501;-60
2022/03/18 05:18:30;;;;;;;2.05;1.30;;;17.80;35.10;20.40;95185.00;;;;10311866;28;47058;-60
2022/03/18 05:23:32;;;;;;;1.30;1.00;;;17.80;35.00;20.50;95215.00;;;;10311782;28;46975;-60
2022/03/18 05:28:33;;;;;;;1.67;1.20;;;17.80;35.00;20.50;95195.00;;;;10312331;28;47147;-60
2022/03/18 05:33:34;;;;;;;3.05;1.40;;;17.90;35.00;20.50;95212.00;;;;10312919;28;45377;-60
2022/03/18 05:38:34;;;;;;;2.10;1.40;;;17.90;34.90;20.50;95214.00;;;;10313206;28;46427;-60
2022/03/18 05:43:36;;;;;;;2.35;1.27;;;18.00;34.90;20.60;95214.00;;;;10311851;28;45625;-60
2022/03/18 05:48:38;;;;;;;2.35;1.40;;;18.00;34.90;20.60;95227.00;;;;10311452;28;47200;-60
2022/03/18 05:53:38;;;;;;;3.30;1.40;;;18.00;35.00;20.60;95220.00;;;;10327904;28;45193;-61
2022/03/18 05:58:40;;;;;;;2.00;1.33;;;18.00;34.90;20.60;95227.00;;;;10312268;28;45201;-60
2022/03/18 06:03:40;;;;;;;2.85;1.30;;;18.10;34.90;20.70;95212.00;;;;10327424;28;45748;-60
2022/03/18 06:14:00;;;;;;;2.03;1.10;;;18.10;34.80;20.70;95221.00;;;;10311169;28;45519;-61
2022/03/18 06:19:01;;;;;;;2.20;1.60;;;18.10;34.80;20.70;95223.00;;;;10312183;28;45406;-60
2022/03/18 06:24:02;;;;;;;2.20;1.40;;;18.10;34.70;20.70;95229.00;;;;10294971;28;46909;-60
2022/03/18 06:29:05;;;;;;;2.88;1.63;;;18.10;34.70;20.70;95235.00;;;;10311798;28;45595;-60
2022/03/18 06:34:08;;;;;;;3.50;1.70;;;18.10;34.70;20.70;95226.00;;;;10326696;28;47205;-60
2022/03/18 06:39:09;;;;;;;3.28;1.80;;;18.20;34.70;20.70;95230.00;;;;10332118;28;47912;-60
2022/03/18 06:44:10;;;;;;;3.33;1.70;;;18.20;34.70;20.70;95233.00;;;;10333897;28;46964;-60
2022/03/18 06:49:11;;;;;;;2.60;1.42;;;18.10;34.60;20.80;95238.00;;;;10317136;28;45304;-60
2022/03/18 06:54:12;;;;;;;2.58;1.67;;;18.20;34.60;20.80;95230.00;;;;10301170;28;47388;-60
2022/03/18 06:59:13;;;;;;;4.63;1.65;;;18.20;34.60;20.80;95239.00;;;;10317366;28;45531;-60
2022/03/18 07:04:13;;;;;;;3.35;1.55;;;18.20;34.50;20.80;95221.00;;;;10330936;28;46193;-60
2022/03/18 07:09:14;;;;;;;2.30;1.45;;;18.20;34.60;20.80;95251.00;;;;10352644;28;45321;-60
2022/03/18 07:14:15;;;;;;;3.10;1.50;;;18.20;34.60;20.80;95257.00;;;;10318491;28;45550;-61
2022/03/18 07:19:15;;;;;;;3.67;1.90;;;18.20;34.50;20.80;95254.00;;;;10318662;28;46415;-60
2022/03/18 07:24:16;;;;;;;4.82;1.70;;;18.20;34.50;20.80;95248.00;;;;10315643;28;45476;-60
2022/03/18 07:29:17;;;;;;;3.22;1.85;;;18.20;34.50;20.80;95246.00;;;;10310759;28;45419;-60
2022/03/18 07:34:17;;;;;;;2.83;2.05;;;18.20;34.50;20.80;95247.00;;;;10314607;28;47303;-60
2022/03/18 07:39:18;;;;;;;3.28;2.00;;;18.20;34.50;20.80;95234.00;;;;10315887;28;46033;-60
2022/03/18 07:44:19;;;;;;;1.92;1.50;;;18.20;34.50;20.90;95242.00;;;;10315621;28;47634;-60
2022/03/18 07:49:19;;;;;;;2.85;2.03;;;18.20;34.50;20.90;95225.00;;;;10315872;28;46425;-60
2022/03/18 07:54:20;;;;;;;2.70;1.88;;;18.30;34.50;20.90;95250.00;;;;10315118;28;48054;-60
2022/03/18 07:59:21;;;;;;;7.35;2.60;;;18.30;34.60;20.80;95247.00;;;;10315788;28;47104;-59
2022/03/18 08:04:21;;;;;;;7.03;2.63;;;18.30;34.50;20.90;95245.00;;;;10343416;28;45345;-60
2022/03/18 08:09:23;;;;;;;6.07;2.45;;;18.30;34.50;20.90;95259.00;;;;10348621;28;46564;-60
2022/03/18 08:14:24;;;;;;;5.45;2.58;;;18.30;34.50;20.90;95271.00;;;;10318820;28;45235;-60
2022/03/18 08:19:25;;;;;;;5.50;2.80;;;18.30;34.60;20.90;95267.00;;;;10314462;28;45419;-60
2022/03/18 08:24:25;;;;;;;5.93;2.60;;;18.30;34.70;20.90;95276.00;;;;10315607;28;45314;-61
2022/03/18 08:29:26;;;;;;;5.47;2.40;;;18.20;34.50;20.90;95267.00;;;;10314354;28;45379;-60
2022/03/18 08:34:27;;;;;;;4.80;2.17;;;18.30;34.50;20.90;95263.00;;;;10313536;28;47229;-59
2022/03/18 08:39:27;;;;;;;4.13;2.20;;;18.30;34.50;20.90;95273.00;;;;10314876;28;45303;-59
2022/03/18 08:44:28;;;;;;;2.80;2.03;;;18.30;34.50;20.90;95278.00;;;;10314439;28;45675;-60
2022/03/18 08:49:29;;;;;;;3.42;2.20;;;18.30;34.40;20.90;95283.00;;;;10314540;28;45447;-60
2022/03/18 08:54:29;;;;;;;4.68;2.38;;;18.30;34.50;20.90;95293.00;;;;10314961;28;45232;-59
2022/03/18 08:59:31;;;;;;;4.07;2.30;;;18.30;34.40;20.90;95286.00;;;;10314016;28;45460;-60
2022/03/18 09:04:32;;;;;;;5.15;2.28;;;18.30;34.40;20.90;95266.00;;;;10314032;28;45572;-60
2022/03/18 09:09:33;;;;;;;2.55;1.92;;;18.30;34.50;20.90;95293.00;;;;10322219;28;45169;-60
2022/03/18 09:14:34;;;;;;;4.75;2.15;;;18.30;34.40;20.90;95304.00;;;;10333139;28;46115;-60
2022/03/18 09:19:37;;;;;;;3.17;2.03;;;18.30;34.50;21.00;95302.00;;;;10340350;28;45626;-60
2022/03/18 09:24:38;;;;;;;4.57;2.22;;;18.30;34.40;20.90;95306.00;;;;10332734;28;45517;-60
2022/03/18 09:29:39;;;;;;;6.57;2.13;;;18.30;34.50;20.90;95300.00;;;;10332394;28;45437;-59
2022/03/18 09:34:40;;;;;;;3.47;2.45;;;18.30;34.40;21.00;95308.00;;;;10327479;28;47241;-60
2022/03/18 09:39:40;;;;;;;4.57;2.45;;;18.30;34.40;21.00;95324.00;;;;10329092;28;47503;-60
2022/03/18 09:44:41;;;;;;;5.63;2.25;;;18.30;34.40;21.00;95316.00;;;;10343741;28;47588;-60
2022/03/18 09:49:45;;;;;;;4.55;2.47;;;18.40;34.40;21.00;95312.00;;;;10353823;28;46258;-59
2022/03/18 09:54:45;;;;;;;4.88;2.38;;;18.40;34.60;21.00;95293.00;;;;10368844;28;45181;-60
2022/03/18 09:59:47;;;;;;;4.70;2.60;;;18.40;35.60;20.90;95308.00;;;;10368607;28;45213;-60
2022/03/18 10:05:01;;;;;;;6.47;2.97;;;18.30;36.10;20.90;95306.00;;;;10353460;28;46072;-60
2022/03/18 10:10:14;;;;;;;4.32;3.08;;;18.30;36.20;20.90;95316.00;;;;10368738;28;46163;-60
2022/03/18 10:15:26;;;;;;;4.53;2.70;;;18.40;36.30;20.90;95320.00;;;;10360538;28;45371;-60
2022/03/18 10:20:40;;;;;;;4.32;3.10;;;18.30;38.00;20.90;95314.00;;;;10375869;28;47410;-62
2022/03/18 10:25:50;;;;;;;5.72;3.40;;;18.40;37.10;20.90;95333.00;;;;10374390;28;45249;-60
2022/03/18 10:30:51;;;;;;;5.68;2.97;;;18.40;37.40;21.00;95334.00;;;;10359932;28;45218;-60
2022/03/18 10:41:23;;;;;;;7.93;2.90;;;18.40;37.70;20.90;95327.00;;;;10351340;28;45677;-60
2022/03/18 10:46:24;;;;;;;4.78;2.83;;;18.40;37.80;21.00;95325.00;;;;10339044;28;47423;-60
2022/03/18 10:51:25;;;;;;;3.88;2.80;;;18.40;38.10;21.00;95342.00;;;;10317736;28;45266;-60
2022/03/18 10:56:26;;;;;;;4.60;3.03;;;18.40;37.90;21.00;95329.00;;;;10334053;28;45231;-59
2022/03/18 11:01:30;;;;;;;6.70;3.10;;;18.40;38.20;21.00;95340.00;;;;10339515;28;45782;-60
2022/03/18 11:06:30;;;;;;;6.63;2.95;;;18.40;38.50;21.00;95344.00;;;;10349367;28;47397;-60
2022/03/18 11:11:31;;;;;;;4.72;3.30;;;18.40;38.80;21.10;95338.00;;;;10371914;28;45399;-60
2022/03/18 11:16:38;;;;;;;4.25;3.10;;;18.50;39.10;21.10;95335.00;;;;10329878;28;45304;-60
2022/03/18 11:21:40;;;;;;;4.88;3.30;;;18.50;39.30;21.10;95337.00;;;;10321456;28;45330;-59
2022/03/18 11:26:53;;;;;;;4.57;3.58;;;18.50;39.40;21.10;95333.00;;;;10316000;28;45333;-60
2022/03/18 11:32:20;;;;;;;4.40;3.20;;;18.50;39.70;21.10;95328.00;;;;10353217;28;46530;-60
2022/03/18 11:37:25;;;;;;;5.43;3.33;;;18.50;39.90;21.10;95323.00;;;;10357492;28;46294;-60
2022/03/18 11:42:25;;;;;;;5.30;3.80;;;18.50;40.00;21.10;95331.00;;;;10357882;28;45335;-60
2022/03/18 11:47:28;;;;;;;5.53;3.67;;;18.50;40.00;21.10;95330.00;;;;10356296;28;48676;-60
2022/03/18 11:52:29;;;;;;;6.40;3.90;;;18.50;40.10;21.10;95323.00;;;;10372735;28;47172;-60
2022/03/18 11:57:39;;;;;;;5.15;3.30;;;18.50;40.40;21.10;95324.00;;;;10372503;28;45262;-60
2022/03/18 12:02:41;;;;;;;5.13;3.35;;;18.50;40.00;21.10;95309.00;;;;10372186;28;45994;-60
2022/03/18 12:07:51;;;;;;;5.25;3.53;;;18.50;40.10;21.10;95311.00;;;;10343181;28;45523;-60
2022/03/18 12:12:54;;;;;;;4.43;3.55;;;18.50;40.70;21.10;95293.00;;;;10316218;28;45340;-60
2022/03/18 12:17:57;;;;;;;4.75;3.20;;;18.60;40.50;21.10;95313.00;;;;10314177;28;45184;-60
2022/03/18 12:23:03;;;;;;;4.88;3.67;;;18.60;40.60;21.10;95315.00;;;;10314915;28;45270;-60
2022/03/18 12:28:05;;;;;;;5.65;3.67;;;18.50;40.70;21.10;95305.00;;;;10314485;28;45199;-60
2022/03/18 12:33:08;;;;;;;4.65;3.25;;;18.50;40.50;21.10;95310.00;;;;10337716;22;45648;-64
2022/03/18 12:38:12;;;;;;;5.15;3.70;;;18.60;40.50;21.10;95296.00;;;;10297484;28;46907;-66
2022/03/18 12:43:15;;;;;;;5.05;3.50;;;18.60;40.40;21.10;95303.00;;;;10314266;28;45387;-64
2022/03/18 12:48:21;;;;;;;5.63;3.58;;;18.60;40.50;21.10;95295.00;;;;10313858;28;45325;-64
2022/03/18 12:53:24;;;;;;;5.47;3.17;;;18.50;40.50;21.10;95294.00;;;;10296978;28;46952;-65
2022/03/18 12:58:28;;;;;;;5.20;3.50;;;18.60;40.70;21.10;95288.00;;;;10296250;28;47475;-66
2022/03/18 13:03:31;;;;;;;4.90;3.50;;;18.60;40.60;21.10;95301.00;;;;10296747;28;48372;-67
2022/03/18 13:08:34;;;;;;;6.35;3.80;;;18.50;40.50;21.10;95293.00;;;;10312501;28;46846;-65
2022/03/18 13:13:36;;;;;;;4.97;3.92;;;18.50;40.80;21.10;95297.00;;;;10280788;28;47299;-64
2022/03/18 13:18:38;;;;;;;4.90;3.53;;;18.50;40.50;21.10;95290.00;;;;10296176;28;47232;-64
2022/03/18 13:23:40;;;;;;;5.57;3.38;;;18.50;40.50;21.10;95289.00;;;;10296666;28;48079;-64
2022/03/18 13:28:42;;;;;;;5.50;3.42;;;18.50;40.40;21.10;95293.00;;;;10313189;28;45327;-65
2022/03/18 13:33:49;;;;;;;6.40;3.75;;;18.50;40.20;21.10;95285.00;;;;10312404;28;45607;-66
2022/03/18 13:38:52;;;;;;;5.15;3.53;;;18.50;40.20;21.20;95275.00;;;;10281225;28;47959;-65
2022/03/18 13:43:57;;;;;;;4.45;3.10;;;18.60;40.10;21.20;95271.00;;;;10298207;28;48247;-66
2022/03/18 13:49:18;;;;;;;6.75;3.45;;;18.60;40.10;21.20;95279.00;;;;10302216;28;47373;-65
2022/03/18 13:54:21;;;;;;;5.85;3.50;;;18.60;40.10;21.20;95288.00;;;;10285089;28;46931;-66
2022/03/18 13:59:21;;;;;;;5.47;3.38;;;18.60;40.10;21.10;95280.00;;;;10312429;28;45355;-65
2022/03/18 14:04:22;;;;;;;5.35;3.63;;;18.60;40.20;21.10;95274.00;;;;10295371;28;46956;-66
2022/03/18 14:09:23;;;;;;;4.70;3.50;;;18.60;40.20;21.10;95267.00;;;;10310063;28;47000;-66
2022/03/18 14:14:29;;;;;;;4.40;3.33;;;18.60;40.00;21.10;95275.00;;;;10311688;28;46989;-65
2022/03/18 14:19:49;;;;;;;6.33;3.23;;;18.50;40.00;21.20;95271.00;;;;10311704;28;45549;-65
2022/03/18 14:24:51;;;;;;;4.97;3.47;;;18.50;39.80;21.10;95266.00;;;;10304510;28;48039;-67
2022/03/18 14:29:52;;;;;;;4.18;3.33;;;18.60;40.00;21.10;95267.00;;;;10312382;28;46787;-65
2022/03/18 14:34:54;;;;;;;5.88;3.42;;;18.50;40.60;21.10;95266.00;;;;10304776;28;46993;-65
2022/03/18 14:39:54;;;;;;;5.35;3.17;;;18.50;39.70;21.10;95280.00;;;;10310121;28;45340;-64
2022/03/18 14:44:56;;;;;;;6.43;3.35;;;18.50;39.80;21.10;95270.00;;;;10311128;28;45450;-65
2022/03/18 14:49:56;;;;;;;6.18;3.53;;;18.60;39.50;21.10;95272.00;;;;10294611;28;47286;-65
2022/03/18 15:00:17;;;;;;;5.57;3.63;;;18.50;39.20;21.10;95285.00;;;;10316527;28;45771;-64
2022/03/18 15:05:18;;;;;;;5.70;3.65;;;18.50;39.10;21.10;95260.00;;;;10318823;28;45139;-65
2022/03/18 15:10:19;;;;;;;5.03;3.55;;;18.50;38.90;21.10;95283.00;;;;10316825;28;47244;-65
2022/03/18 15:15:20;;;;;;;4.50;3.17;;;18.50;38.70;21.10;95284.00;;;;10317267;28;45454;-64
2022/03/18 15:20:21;;;;;;;5.15;3.28;;;18.50;38.50;21.10;95277.00;;;;10300744;28;46981;-65
2022/03/18 15:25:22;;;;;;;5.85;3.35;;;18.50;38.40;21.00;95268.00;;;;10300753;28;48359;-65
2022/03/18 15:30:24;;;;;;;5.72;3.60;;;18.50;38.20;21.00;95270.00;;;;10316716;28;46993;-65
2022/03/18 15:35:25;;;;;;;5.88;3.50;;;18.40;37.80;21.00;95264.00;;;;10316357;28;48403;-66
2022/03/18 15:40:26;;;;;;;4.55;3.10;;;18.40;36.90;21.00;95272.00;;;;10300415;28;47194;-64
2022/03/18 15:45:27;;;;;;;5.68;3.30;;;18.40;37.40;21.00;95258.00;;;;10317521;28;45192;-65
2022/03/18 15:50:28;;;;;;;6.07;3.08;;;18.40;37.10;21.00;95252.00;;;;10316462;28;46239;-65
2022/03/18 15:55:29;;;;;;;7.40;3.00;;;18.40;36.20;21.00;95247.00;;;;10317100;28;46595;-64
2022/03/18 16:00:30;;;;;;;3.55;2.60;;;18.40;36.50;21.00;95257.00;;;;10314819;28;45745;-64
2022/03/18 16:05:34;;;;;;;5.10;3.42;;;18.40;36.70;21.10;95260.00;;;;10315731;28;46992;-64
2022/03/18 16:10:37;;;;;;;4.88;3.10;;;18.40;36.60;21.10;95246.00;;;;10316853;28;45545;-64
2022/03/18 16:15:37;;;;;;;3.80;2.80;;;18.40;36.50;21.10;95251.00;;;;10314978;28;47692;-64
2022/03/18 16:20:41;;;;;;;4.65;3.15;;;18.40;36.40;21.10;95254.00;;;;10309575;28;47066;-65
2022/03/18 16:25:42;;;;;;;4.22;3.08;;;18.50;36.40;21.10;95253.00;;;;10292873;28;45279;-65
2022/03/18 16:30:43;;;;;;;4.65;2.88;;;18.50;36.40;21.10;95252.00;;;;10287455;28;45658;-65
2022/03/18 16:35:45;;;;;;;4.20;3.10;;;18.40;36.30;21.10;95260.00;;;;10301719;28;47867;-64
2022/03/18 16:40:46;;;;;;;4.97;3.20;;;18.40;36.20;21.10;95268.00;;;;10331308;28;46582;-65
2022/03/18 16:51:06;;;;;;;3.85;2.97;;;18.40;36.10;21.10;95268.00;;;;10314399;28;45251;-65
2022/03/18 16:56:08;;;;;;;4.47;2.97;;;18.40;36.00;21.10;95263.00;;;;10313926;28;46066;-64
2022/03/18 17:01:16;;;;;;;4.75;3.30;;;18.40;36.00;21.10;95268.00;;;;10314724;28;45489;-64
2022/03/18 17:06:17;;;;;;;3.65;2.97;;;18.40;36.00;21.10;95260.00;;;;10313711;28;46395;-64
2022/03/18 17:11:17;;;;;;;3.88;2.78;;;18.50;36.00;21.10;95280.00;;;;10313365;28;45730;-64
2022/03/18 17:16:18;;;;;;;4.53;2.90;;;18.50;35.90;21.10;95286.00;;;;10296795;28;47580;-65
2022/03/18 17:21:19;;;;;;;5.50;3.10;;;18.40;35.90;21.10;95282.00;;;;10312558;28;45341;-64
2022/03/18 17:26:19;;;;;;;4.43;3.10;;;18.40;35.80;21.10;95291.00;;;;10314035;28;46455;-64
2022/03/18 17:31:20;;;;;;;6.32;3.05;;;18.40;35.80;21.10;95287.00;;;;10312593;28;46419;-65
2022/03/18 17:36:21;;;;;;;4.88;3.20;;;18.40;35.80;21.10;95281.00;;;;10295852;28;47204;-64
2022/03/18 17:41:27;;;;;;;4.30;3.10;;;18.40;35.80;21.00;95293.00;;;;10313180;28;45558;-65
2022/03/18 17:46:28;;;;;;;3.97;3.00;;;18.40;35.80;21.00;95303.00;;;;10295812;28;47175;-65
2022/03/18 17:51:30;;;;;;;3.90;2.97;;;18.40;35.70;21.10;95304.00;;;;10311731;28;47795;-65
2022/03/18 17:56:37;;;;;;;4.60;3.28;;;18.40;35.70;21.00;95313.00;;;;10312217;28;46767;-64
2022/03/18 18:01:38;;;;;;;5.25;3.40;;;18.40;35.60;21.00;95314.00;;;;10313517;28;45120;-65
2022/03/18 18:06:40;;;;;;;5.45;3.60;;;18.40;35.50;21.00;95313.00;;;;10311308;28;46756;-64
2022/03/18 18:11:42;;;;;;;5.43;3.53;;;18.40;35.50;21.00;95312.00;;;;10312043;28;45592;-64
2022/03/18 18:16:43;;;;;;;5.63;3.60;;;18.40;35.40;21.10;95315.00;;;;10294844;28;47938;-65
2022/03/18 18:21:57;;;;;;;4.68;3.40;;;18.40;35.30;21.00;95303.00;;;;10293951;28;47556;-64
2022/03/18 18:26:58;;;;;;;4.93;3.67;;;18.40;35.20;21.00;95300.00;;;;10311333;28;45357;-65
2022/03/18 18:31:59;;;;;;;4.68;3.35;;;18.40;35.20;21.00;95326.00;;;;10312763;28;46200;-64
2022/03/18 18:37:00;;;;;;;4.65;3.20;;;18.40;35.00;21.00;95323.00;;;;10319290;28;46194;-64
2022/03/18 18:42:07;;;;;;;4.15;3.30;;;18.40;35.00;21.00;95325.00;;;;10301375;28;47802;-65
2022/03/18 18:47:09;;;;;;;4.78;3.33;;;18.40;34.90;21.00;95331.00;;;;10301026;28;46687;-64
2022/03/18 18:52:12;;;;;;;4.40;3.20;;;18.40;34.70;21.10;95312.00;;;;10317572;28;46018;-64
2022/03/18 18:57:13;;;;;;;4.47;3.17;;;18.40;34.60;21.00;95321.00;;;;10317048;28;45182;-65
2022/03/18 19:02:14;;;;;;;4.88;3.53;;;18.40;34.50;21.00;95314.00;;;;10317106;28;47148;-65
2022/03/18 19:07:15;;;;;;;4.35;3.47;;;18.40;34.50;21.00;95321.00;;;;10331901;23;47049;-63
2022/03/18 19:12:18;;;;;;;6.30;3.58;;;18.40;34.40;21.00;95337.00;;;;10356955;28;45295;-63
2022/03/18 19:17:20;;;;;;;5.05;3.55;;;18.40;34.30;21.00;95348.00;;;;10344763;28;47876;-63
2022/03/18 19:22:22;;;;;;;5.32;3.60;;;18.40;34.00;21.00;95341.00;;;;10315846;28;45167;-64
2022/03/18 19:27:23;;;;;;;5.47;3.60;;;18.40;34.00;21.00;95330.00;;;;10328837;28;45278;-64
2022/03/18 19:32:29;;;;;;;5.25;3.67;;;18.40;33.10;21.00;95347.00;;;;10329091;28;45417;-63
2022/03/18 19:37:32;;;;;;;5.32;3.80;;;18.40;33.80;21.00;95331.00;;;;10312762;28;46946;-63
2022/03/18 19:42:35;;;;;;;5.18;3.90;;;18.40;33.70;21.00;95337.00;;;;10328856;28;45338;-63
2022/03/18 19:47:37;;;;;;;5.22;3.55;;;18.40;33.60;21.00;95340.00;;;;10328838;28;46283;-64
2022/03/18 19:52:38;;;;;;;5.50;3.85;;;18.40;33.40;20.90;95333.00;;;;10311978;28;47148;-63
2022/03/18 20:02:59;;;;;;;4.55;3.33;;;18.30;33.20;21.00;95345.00;;;;10314114;28;45762;-63
2022/03/18 20:08:04;;;;;;;5.13;3.72;;;18.30;33.00;21.00;95351.00;;;;10313072;28;47002;-63
2022/03/18 20:13:05;;;;;;;5.80;3.37;;;18.30;33.00;21.00;95350.00;;;;10314508;28;45313;-64
2022/03/18 20:18:06;;;;;;;5.57;3.58;;;18.40;32.70;21.00;95363.00;;;;10329773;28;46768;-64
2022/03/18 20:23:06;;;;;;;5.13;3.47;;;18.30;32.80;21.00;95364.00;;;;10313084;28;47162;-64
2022/03/18 20:28:07;;;;;;;5.43;3.80;;;18.30;32.70;20.90;95348.00;;;;10329615;28;45404;-64
2022/03/18 20:33:07;;;;;;;5.95;3.50;;;18.40;32.50;20.90;95349.00;;;;10328393;28;46696;-64
2022/03/18 20:38:09;;;;;;;5.85;3.78;;;18.30;32.50;20.90;95353.00;;;;10313305;28;45464;-63
2022/03/18 20:43:10;;;;;;;4.30;3.40;;;18.30;32.50;20.90;95365.00;;;;10314530;28;45312;-63
2022/03/18 20:48:11;;;;;;;5.22;3.58;;;18.40;32.30;20.90;95338.00;;;;10327742;28;45336;-64
2022/03/18 20:53:12;;;;;;;5.15;3.60;;;18.30;32.20;20.90;95365.00;;;;10312571;28;48076;-64
2022/03/18 20:58:13;;;;;;;5.90;3.75;;;18.30;32.20;20.90;95368.00;;;;10326969;28;45281;-64
2022/03/18 21:03:14;;;;;;;4.65;3.40;;;18.30;32.10;20.90;95350.00;;;;10327439;28;45297;-64
2022/03/18 21:08:14;;;;;;;4.88;3.25;;;18.30;31.90;20.90;95368.00;;;;10310388;28;46982;-64
2022/03/18 21:13:15;;;;;;;4.50;3.38;;;18.30;32.10;20.90;95349.00;;;;10311435;28;47186;-63
2022/03/18 21:18:16;;;;;;;7.00;3.78;;;18.30;31.90;20.90;95353.00;;;;10311198;28;47327;-64
2022/03/18 21:23:16;;;;;;;4.63;3.70;;;18.30;31.90;20.90;95348.00;;;;10309516;28;47234;-63
2022/03/18 21:33:36;;;;;;;5.43;3.80;;;18.30;31.80;20.90;95356.00;;;;10322592;28;45674;-64
2022/03/18 21:38:40;;;;;;;4.85;3.80;;;18.30;31.60;20.80;95346.00;;;;10308348;28;45304;-63
2022/03/18 21:43:41;;;;;;;5.10;3.78;;;18.20;31.60;20.80;95343.00;;;;10311673;28;47220;-64
2022/03/18 21:48:42;;;;;;;4.60;3.53;;;18.20;31.50;20.80;95361.00;;;;10304897;28;48128;-63
2022/03/18 21:53:44;;;;;;;7.57;3.95;;;18.20;31.50;20.80;95348.00;;;;10308345;28;47560;-63
2022/03/18 21:58:45;;;;;;;5.82;3.95;;;18.20;31.50;20.70;95345.00;;;;10326818;28;45222;-63
2022/03/18 22:03:46;;;;;;;5.28;3.83;;;18.20;31.20;20.70;95331.00;;;;10326519;28;46459;-63
2022/03/18 22:08:47;;;;;;;6.57;4.20;;;18.10;31.20;20.70;95336.00;;;;10306855;28;47443;-63
2022/03/18 22:13:48;;;;;;;6.18;4.28;;;18.10;31.40;20.70;95333.00;;;;10307248;28;47440;-63
2022/03/18 22:18:49;;;;;;;6.50;4.28;;;18.10;31.50;20.70;95321.00;;;;10308228;28;48033;-63
2022/03/18 22:23:50;;;;;;;6.38;4.20;;;18.10;31.30;20.70;95311.00;;;;10307970;28;47388;-63
2022/03/18 22:28:50;;;;;;;5.68;3.90;;;18.10;31.30;20.60;95324.00;;;;10324038;28;45639;-63
2022/03/18 22:33:51;;;;;;;8.07;3.97;;;18.10;31.20;20.60;95339.00;;;;10308554;28;46584;-63
2022/03/18 22:38:52;;;;;;;6.75;4.13;;;18.00;31.20;20.60;95328.00;;;;10322844;28;45256;-63
2022/03/18 22:43:52;;;;;;;5.53;4.05;;;18.00;31.10;20.60;95310.00;;;;10309862;28;45297;-63